Columbus, Georgia
Current Conditions -  °F | °C
As of 1:51 AM on Tuesday 21 Oct 2014 (Local Time) from KCSG Reporting Station
Clear Clear  
Wind Chill: 13°   Ceiling: Unl
Heat Index: 13°   Visibility: 10mi
Dew Point: 12°   Wind: 0mph
Humidity: 90%   Direction: NA
Pressure: 30.01"   Gusts: NA
Location:  32.51°N, 84.93°W
Report Text: KCSG 210551Z AUTO 00000KT 10SM CLR 13/12 A3001 RMK AO2 SLP159 T01330117 10200 20133 56003
Loading
Personal Weather Stations






























Interactive Weather Map
Tropical Storm Tracking
New forecast layout! Learn more

10-Day Weather Forecast

Advertisements
Track Severe Weather on mobile